Terminal Aerodrome Forecast
Issued by NWS Pocatello, ID

Home | Current Version | Previous Version | Text Only | Print | Product List | Glossary On
Versions: 1 2 3 4 5 6 7 8 9 10 11 12 13
000
FTUS45 KPIH 162000 AAA
TAFPIH
TAF AMD
KPIH 162054Z 1621/1718 36009KT P6SM SCT070 BKN100
     FM162200 26010KT P6SM VCSH SCT070 BKN100
     FM170200 VRB05KT P6SM SCT250=

USA.gov is the U.S. government's official web portal to all federal, state and local government web resources and services.